createdAt,value
2023-04-22T00:00:02.262Z,1003.00
2023-04-22T00:01:02.257Z,1002.97
2023-04-22T00:02:02.298Z,1002.96
2023-04-22T00:03:02.539Z,1002.98
2023-04-22T00:04:02.533Z,1002.95
2023-04-22T00:05:02.487Z,1002.94
2023-04-22T00:06:02.221Z,1002.94
2023-04-22T00:07:02.180Z,1002.93
2023-04-22T00:08:02.207Z,1002.92
2023-04-22T00:09:02.165Z,1002.88
2023-04-22T00:10:02.163Z,1002.88
2023-04-22T00:11:02.135Z,1002.94
2023-04-22T00:12:02.149Z,1002.90
2023-04-22T00:13:02.110Z,1002.95
2023-04-22T00:14:02.107Z,1002.96
2023-04-22T00:15:02.106Z,1002.91
2023-04-22T00:16:02.124Z,1002.93
2023-04-22T00:17:02.055Z,1002.95
2023-04-22T00:18:02.090Z,1002.92
2023-04-22T00:19:02.044Z,1002.90
2023-04-22T00:20:02.052Z,1002.89
2023-04-22T00:21:02.044Z,1002.89
2023-04-22T00:22:02.025Z,1002.88
2023-04-22T00:23:01.989Z,1002.87
2023-04-22T00:24:01.977Z,1002.90
2023-04-22T00:25:01.976Z,1002.86
2023-04-22T00:26:01.966Z,1002.87
2023-04-22T00:27:01.953Z,1002.86
2023-04-22T00:28:01.946Z,1002.84
2023-04-22T00:29:01.919Z,1002.82
2023-04-22T00:30:01.943Z,1002.82
2023-04-22T00:31:01.933Z,1002.80
2023-04-22T00:32:01.890Z,1002.82
2023-04-22T00:33:01.977Z,1002.85
2023-04-22T00:34:01.933Z,1002.82
2023-04-22T00:35:01.872Z,1002.86
2023-04-22T00:36:01.839Z,1002.88
2023-04-22T00:37:01.894Z,1002.90
2023-04-22T00:38:01.849Z,1002.89
2023-04-22T00:39:01.815Z,1002.88
2023-04-22T00:40:01.860Z,1002.89
2023-04-22T00:41:01.793Z,1002.85
2023-04-22T00:42:01.768Z,1002.88
2023-04-22T00:43:01.787Z,1002.86
2023-04-22T00:44:01.752Z,1002.88
2023-04-22T00:45:01.732Z,1002.86
2023-04-22T00:46:01.743Z,1002.87
2023-04-22T00:47:01.758Z,1002.86
2023-04-22T00:48:01.849Z,1002.89
2023-04-22T00:49:01.744Z,1002.84
2023-04-22T00:50:01.726Z,1002.83
2023-04-22T00:51:02.398Z,1002.85
2023-04-22T00:52:01.667Z,1002.82
2023-04-22T00:53:01.690Z,1002.86
2023-04-22T00:54:01.663Z,1002.84
2023-04-22T00:55:01.630Z,1002.83
2023-04-22T00:56:01.621Z,1002.81
2023-04-22T00:57:01.607Z,1002.83
2023-04-22T00:58:01.612Z,1002.82
2023-04-22T00:59:01.612Z,1002.85
2023-04-22T01:00:01.576Z,1002.86
2023-04-22T01:01:01.586Z,1002.85
2023-04-22T01:02:01.660Z,1002.88
2023-04-22T01:03:01.706Z,1002.86
2023-04-22T01:04:01.701Z,1002.90
2023-04-22T01:05:01.530Z,1002.90
2023-04-22T01:06:01.514Z,1002.90
2023-04-22T01:07:01.496Z,1002.91
2023-04-22T01:08:01.488Z,1002.88
2023-04-22T01:09:01.523Z,1002.89
2023-04-22T01:10:01.463Z,1002.88
2023-04-22T01:11:01.455Z,1002.89
2023-04-22T01:12:01.494Z,1002.87
2023-04-22T01:13:01.431Z,1002.85
2023-04-22T01:14:01.434Z,1002.83
2023-04-22T01:15:04.332Z,1002.84
2023-04-22T01:16:01.386Z,1002.77
2023-04-22T01:17:01.446Z,1002.80
2023-04-22T01:18:01.428Z,1002.82
2023-04-22T01:19:01.406Z,1002.82
2023-04-22T01:20:01.357Z,1002.84
2023-04-22T01:21:01.340Z,1002.81
2023-04-22T01:22:01.328Z,1002.79
2023-04-22T01:23:01.315Z,1002.81
2023-04-22T01:24:01.331Z,1002.81
2023-04-22T01:25:01.307Z,1002.79
2023-04-22T01:26:01.270Z,1002.81
2023-04-22T01:27:01.255Z,1002.84
2023-04-22T01:28:01.270Z,1002.81
2023-04-22T01:29:01.291Z,1002.84
2023-04-22T01:30:01.248Z,1002.86
2023-04-22T01:31:01.223Z,1002.85
2023-04-22T01:32:01.264Z,1002.83
2023-04-22T01:33:01.261Z,1002.84
2023-04-22T01:34:01.228Z,1002.84
2023-04-22T01:35:01.165Z,1002.87
2023-04-22T01:36:01.157Z,1002.87
2023-04-22T01:37:01.160Z,1002.84
2023-04-22T01:38:01.161Z,1002.87
2023-04-22T01:39:01.129Z,1002.87
2023-04-22T01:40:01.126Z,1002.90
2023-04-22T01:41:01.142Z,1002.89
2023-04-22T01:42:01.097Z,1002.89
2023-04-22T01:43:01.113Z,1002.89
2023-04-22T01:44:01.095Z,1002.88
2023-04-22T01:45:01.067Z,1002.87
2023-04-22T01:46:01.083Z,1002.83
2023-04-22T01:47:01.040Z,1002.84
2023-04-22T01:48:01.061Z,1002.86
2023-04-22T01:49:01.034Z,1002.82
2023-04-22T01:50:00.998Z,1002.79
2023-04-22T01:51:00.988Z,1002.80
2023-04-22T01:52:00.977Z,1002.83
2023-04-22T01:53:00.983Z,1002.78
2023-04-22T01:54:00.970Z,1002.81
2023-04-22T01:55:00.949Z,1002.81
2023-04-22T01:56:00.962Z,1002.83
2023-04-22T01:57:00.955Z,1002.81
2023-04-22T01:58:00.907Z,1002.82
2023-04-22T01:59:00.973Z,1002.80
2023-04-22T02:00:00.903Z,1002.77
2023-04-22T02:01:00.899Z,1002.77
2023-04-22T02:02:01.020Z,1002.78
2023-04-22T02:03:01.031Z,1002.79
2023-04-22T02:04:00.904Z,1002.74
2023-04-22T02:05:00.882Z,1002.73
2023-04-22T02:06:00.819Z,1002.74
2023-04-22T02:07:00.805Z,1002.72
2023-04-22T02:08:00.802Z,1002.74
2023-04-22T02:09:00.808Z,1002.72
2023-04-22T02:10:00.821Z,1002.73
2023-04-22T02:11:00.796Z,1002.71
2023-04-22T02:12:00.762Z,1002.73
2023-04-22T02:13:00.783Z,1002.69
2023-04-22T02:14:00.722Z,1002.71
2023-04-22T02:15:00.974Z,1002.66
2023-04-22T02:16:00.746Z,1002.59
2023-04-22T02:17:00.713Z,1002.60
2023-04-22T02:18:00.674Z,1002.59
2023-04-22T02:19:00.698Z,1002.56
2023-04-22T02:20:00.746Z,1002.54
2023-04-22T02:21:00.668Z,1002.54
2023-04-22T02:22:00.639Z,1002.53
2023-04-22T02:23:00.667Z,1002.49
2023-04-22T02:24:00.609Z,1002.48
2023-04-22T02:25:00.665Z,1002.48
2023-04-22T02:26:00.590Z,1002.47
2023-04-22T02:27:00.580Z,1002.41
2023-04-22T02:28:00.566Z,1002.38
2023-04-22T02:29:00.589Z,1002.45
2023-04-22T02:30:00.553Z,1002.47
2023-04-22T02:31:00.623Z,1002.45
2023-04-22T02:32:00.525Z,1002.44
2023-04-22T02:33:00.545Z,1002.43
2023-04-22T02:34:00.520Z,1002.49
2023-04-22T02:35:00.531Z,1002.48
2023-04-22T02:36:00.474Z,1002.48
2023-04-22T02:37:00.471Z,1002.56
2023-04-22T02:38:00.465Z,1002.54
2023-04-22T02:39:00.460Z,1002.56
2023-04-22T02:40:00.508Z,1002.62
2023-04-22T02:41:00.418Z,1002.60
2023-04-22T02:42:00.413Z,1002.58
2023-04-22T02:43:00.429Z,1002.64
2023-04-22T02:44:00.389Z,1002.63
2023-04-22T02:45:00.409Z,1002.64
2023-04-22T02:46:00.388Z,1002.63
2023-04-22T02:47:00.505Z,1002.63
2023-04-22T02:48:00.399Z,1002.59
2023-04-22T02:49:00.343Z,1002.59
2023-04-22T02:50:00.361Z,1002.60
2023-04-22T02:51:00.314Z,1002.55
2023-04-22T02:52:00.300Z,1002.55
2023-04-22T02:53:00.282Z,1002.56
2023-04-22T02:54:00.278Z,1002.52
2023-04-22T02:55:00.276Z,1002.56
2023-04-22T02:56:00.249Z,1002.49
2023-04-22T02:57:00.247Z,1002.50
2023-04-22T02:58:00.288Z,1002.47
2023-04-22T02:59:00.233Z,1002.50
2023-04-22T03:00:00.239Z,1002.45
2023-04-22T03:01:00.266Z,1002.45
2023-04-22T03:02:00.235Z,1002.47
2023-04-22T03:03:00.417Z,1002.45
2023-04-22T03:04:00.476Z,1002.42
2023-04-22T03:05:00.169Z,1002.44
2023-04-22T03:06:00.169Z,1002.43
2023-04-22T03:07:00.150Z,1002.41
2023-04-22T03:08:00.141Z,1002.39
2023-04-22T03:09:00.102Z,1002.37
2023-04-22T03:10:00.154Z,1002.37
2023-04-22T03:11:00.077Z,1002.32
2023-04-22T03:12:00.096Z,1002.34
2023-04-22T03:13:00.072Z,1002.29
2023-04-22T03:14:00.057Z,1002.22
2023-04-22T03:15:00.078Z,1002.20
2023-04-22T03:16:00.102Z,1002.19
2023-04-22T03:17:00.149Z,1002.25
2023-04-22T03:18:00.090Z,1002.24
2023-04-22T03:18:59.992Z,1002.17
2023-04-22T03:19:59.973Z,1002.22
2023-04-22T03:21:00.000Z,1002.21
2023-04-22T03:21:59.968Z,1002.15
2023-04-22T03:22:59.943Z,1002.19
2023-04-22T03:23:59.945Z,1002.25
2023-04-22T03:24:59.964Z,1002.27
2023-04-22T03:25:59.919Z,1002.22
2023-04-22T03:26:59.929Z,1002.27
2023-04-22T03:27:59.884Z,1002.25
2023-04-22T03:28:59.877Z,1002.28
2023-04-22T03:29:59.881Z,1002.27
2023-04-22T03:30:59.869Z,1002.23
2023-04-22T03:31:59.889Z,1002.23
2023-04-22T03:32:59.948Z,1002.22
2023-04-22T03:33:59.849Z,1002.19
2023-04-22T03:34:59.807Z,1002.17
2023-04-22T03:35:59.826Z,1002.20
2023-04-22T03:36:59.805Z,1002.21
2023-04-22T03:37:59.784Z,1002.19
2023-04-22T03:38:59.795Z,1002.19
2023-04-22T03:39:59.756Z,1002.18
2023-04-22T03:40:59.740Z,1002.20
2023-04-22T03:41:59.742Z,1002.15
2023-04-22T03:42:59.733Z,1002.18
2023-04-22T03:44:01.772Z,1002.19
2023-04-22T03:44:59.709Z,1002.24
2023-04-22T03:45:59.728Z,1002.23
2023-04-22T03:46:59.671Z,1002.23
2023-04-22T03:47:59.686Z,1002.23
2023-04-22T03:48:59.780Z,1002.25
2023-04-22T03:49:59.677Z,1002.22
2023-04-22T03:50:59.637Z,1002.22
2023-04-22T03:51:59.639Z,1002.18
2023-04-22T03:52:59.615Z,1002.12
2023-04-22T03:53:59.586Z,1002.11
2023-04-22T03:54:59.578Z,1002.10
2023-04-22T03:55:59.603Z,1002.09
2023-04-22T03:56:59.582Z,1002.09
2023-04-22T03:57:59.548Z,1002.04
2023-04-22T03:58:59.535Z,1002.03
2023-04-22T03:59:59.533Z,1001.96
2023-04-22T04:00:59.515Z,1001.91
2023-04-22T04:01:59.582Z,1001.88
2023-04-22T04:02:59.613Z,1001.85
2023-04-22T04:03:59.757Z,1001.83
2023-04-22T04:04:59.924Z,1001.81
2023-04-22T04:05:59.527Z,1001.76
2023-04-22T04:06:59.459Z,1001.80
2023-04-22T04:07:59.445Z,1001.82
2023-04-22T04:08:59.432Z,1001.84
2023-04-22T04:09:59.421Z,1001.83
2023-04-22T04:10:59.412Z,1001.87
2023-04-22T04:11:59.407Z,1001.82
2023-04-22T04:12:59.379Z,1001.90
2023-04-22T04:13:59.378Z,1001.87
2023-04-22T04:14:59.350Z,1001.90
2023-04-22T04:15:59.373Z,1001.91
2023-04-22T04:16:59.326Z,1001.95
2023-04-22T04:17:59.363Z,1001.91
2023-04-22T04:18:59.359Z,1001.84
2023-04-22T04:19:59.305Z,1001.84
2023-04-22T04:20:59.313Z,1001.86
2023-04-22T04:21:59.274Z,1001.82
2023-04-22T04:22:59.287Z,1001.80
2023-04-22T04:23:59.260Z,1001.83
2023-04-22T04:24:59.542Z,1001.79
2023-04-22T04:25:59.330Z,1001.78
2023-04-22T04:26:59.214Z,1001.79
2023-04-22T04:27:59.203Z,1001.78
2023-04-22T04:28:59.205Z,1001.81
2023-04-22T04:29:59.187Z,1001.81
2023-04-22T04:30:59.247Z,1001.79
2023-04-22T04:31:59.172Z,1001.81
2023-04-22T04:32:59.200Z,1001.78
2023-04-22T04:33:59.153Z,1001.77
2023-04-22T04:34:59.133Z,1001.75
2023-04-22T04:35:59.117Z,1001.73
2023-04-22T04:36:59.135Z,1001.74
2023-04-22T04:37:59.093Z,1001.72
2023-04-22T04:38:59.090Z,1001.76
2023-04-22T04:39:59.075Z,1001.78
2023-04-22T04:40:59.057Z,1001.80
2023-04-22T04:41:59.108Z,1001.78
2023-04-22T04:42:59.066Z,1001.74
2023-04-22T04:43:59.040Z,1001.73
2023-04-22T04:44:59.021Z,1001.73
2023-04-22T04:45:58.989Z,1001.71
2023-04-22T04:46:59.066Z,1001.66
2023-04-22T04:47:59.016Z,1001.68
2023-04-22T04:48:59.006Z,1001.66
2023-04-22T04:49:58.962Z,1001.65
2023-04-22T04:50:58.969Z,1001.67
2023-04-22T04:51:58.934Z,1001.66
2023-04-22T04:52:58.949Z,1001.68
2023-04-22T04:53:58.932Z,1001.69
2023-04-22T04:54:58.916Z,1001.67
2023-04-22T04:55:58.892Z,1001.67
2023-04-22T04:56:58.877Z,1001.67
2023-04-22T04:57:58.881Z,1001.64
2023-04-22T04:58:58.853Z,1001.61
2023-04-22T04:59:58.881Z,1001.60
2023-04-22T05:00:58.836Z,1001.65
2023-04-22T05:01:58.859Z,1001.63
2023-04-22T05:02:59.022Z,1001.65
2023-04-22T05:03:58.929Z,1001.69
2023-04-22T05:04:58.839Z,1001.67
2023-04-22T05:05:58.794Z,1001.67
2023-04-22T05:06:58.773Z,1001.60
2023-04-22T05:07:58.746Z,1001.60
2023-04-22T05:08:58.779Z,1001.58
2023-04-22T05:09:58.735Z,1001.59
2023-04-22T05:10:58.728Z,1001.62
2023-04-22T05:11:58.751Z,1001.62
2023-04-22T05:12:58.694Z,1001.62
2023-04-22T05:13:58.690Z,1001.64
2023-04-22T05:14:58.678Z,1001.66
2023-04-22T05:15:58.716Z,1001.63
2023-04-22T05:16:58.744Z,1001.65
2023-04-22T05:17:58.728Z,1001.67
2023-04-22T05:18:58.633Z,1001.60
2023-04-22T05:19:58.610Z,1001.62
2023-04-22T05:20:58.611Z,1001.72
2023-04-22T05:21:58.589Z,1001.71
2023-04-22T05:22:58.593Z,1001.74
2023-04-22T05:23:58.608Z,1001.69
2023-04-22T05:24:58.606Z,1001.68
2023-04-22T05:25:58.553Z,1001.70
2023-04-22T05:26:58.548Z,1001.68
2023-04-22T05:27:58.515Z,1001.67
2023-04-22T05:28:58.540Z,1001.67
2023-04-22T05:29:58.507Z,1001.71
2023-04-22T05:30:58.515Z,1001.70
2023-04-22T05:31:58.549Z,1001.69
2023-04-22T05:32:58.478Z,1001.68
2023-04-22T05:33:58.467Z,1001.69
2023-04-22T05:34:58.469Z,1001.72
2023-04-22T05:35:58.426Z,1001.72
2023-04-22T05:36:58.429Z,1001.76
2023-04-22T05:37:58.425Z,1001.76
2023-04-22T05:38:58.398Z,1001.78
2023-04-22T05:39:58.394Z,1001.75
2023-04-22T05:40:58.440Z,1001.79
2023-04-22T05:41:58.400Z,1001.71
2023-04-22T05:42:58.371Z,1001.71
2023-04-22T05:43:58.339Z,1001.67
2023-04-22T05:44:58.345Z,1001.71
2023-04-22T05:45:58.348Z,1001.67
2023-04-22T05:46:58.357Z,1001.70
2023-04-22T05:47:58.335Z,1001.70
2023-04-22T05:48:58.299Z,1001.70
2023-04-22T05:49:58.265Z,1001.71
2023-04-22T05:50:58.275Z,1001.72
2023-04-22T05:51:58.289Z,1001.72
2023-04-22T05:52:58.270Z,1001.74
2023-04-22T05:53:58.230Z,1001.73
2023-04-22T05:54:58.230Z,1001.69
2023-04-22T05:55:58.210Z,1001.68
2023-04-22T05:56:58.224Z,1001.72
2023-04-22T05:57:58.188Z,1001.70
2023-04-22T05:58:58.198Z,1001.69
2023-04-22T05:59:58.162Z,1001.70
2023-04-22T06:00:58.161Z,1001.67
2023-04-22T06:01:58.149Z,1001.72
2023-04-22T06:02:58.331Z,1001.69
2023-04-22T06:03:58.365Z,1001.70
2023-04-22T06:04:58.443Z,1001.71
2023-04-22T06:05:58.268Z,1001.75
2023-04-22T06:06:58.088Z,1001.71
2023-04-22T06:07:58.087Z,1001.68
2023-04-22T06:08:58.049Z,1001.69
2023-04-22T06:10:04.632Z,1001.75
2023-04-22T06:10:59.055Z,1001.77
2023-04-22T06:11:58.020Z,1001.79
2023-04-22T06:12:58.024Z,1001.79
2023-04-22T06:13:57.996Z,1001.72
2023-04-22T06:14:57.994Z,1001.76
2023-04-22T06:15:58.048Z,1001.70
2023-04-22T06:16:57.977Z,1001.77
2023-04-22T06:17:58.001Z,1001.74
2023-04-22T06:18:57.944Z,1001.78
2023-04-22T06:19:57.942Z,1001.80
2023-04-22T06:20:57.913Z,1001.80
2023-04-22T06:21:57.917Z,1001.85
2023-04-22T06:22:57.927Z,1001.85
2023-04-22T06:23:58.527Z,1001.77
2023-04-22T06:24:57.867Z,1001.80
2023-04-22T06:25:57.866Z,1001.77
2023-04-22T06:26:57.851Z,1001.76
2023-04-22T06:27:57.849Z,1001.74
2023-04-22T06:28:57.883Z,1001.67
2023-04-22T06:29:57.815Z,1001.68
2023-04-22T06:30:57.831Z,1001.69
2023-04-22T06:31:57.814Z,1001.69
2023-04-22T06:32:57.813Z,1001.69
2023-04-22T06:33:57.772Z,1001.71
2023-04-22T06:34:57.772Z,1001.66
2023-04-22T06:35:57.761Z,1001.68
2023-04-22T06:36:57.731Z,1001.63
2023-04-22T06:37:57.731Z,1001.62
2023-04-22T06:38:57.743Z,1001.65
2023-04-22T06:39:57.735Z,1001.64
2023-04-22T06:40:57.689Z,1001.60
2023-04-22T06:41:57.716Z,1001.58
2023-04-22T06:42:57.668Z,1001.56
2023-04-22T06:43:57.684Z,1001.56
2023-04-22T06:44:57.694Z,1001.57
2023-04-22T06:45:57.631Z,1001.60
2023-04-22T06:46:58.166Z,1001.64
2023-04-22T06:47:57.735Z,1001.63
2023-04-22T06:48:57.604Z,1001.65
2023-04-22T06:49:57.601Z,1001.60
2023-04-22T06:50:57.608Z,1001.62
2023-04-22T06:51:57.561Z,1001.61
2023-04-22T06:52:57.556Z,1001.68
2023-04-22T06:53:57.569Z,1001.64
2023-04-22T06:54:57.526Z,1001.61
2023-04-22T06:55:57.545Z,1001.64
2023-04-22T06:56:57.533Z,1001.57
2023-04-22T06:57:57.511Z,1001.57
2023-04-22T06:58:57.489Z,1001.48
2023-04-22T06:59:57.539Z,1001.52
2023-04-22T07:00:57.490Z,1001.49
2023-04-22T07:01:57.465Z,1001.50
2023-04-22T07:02:57.585Z,1001.46
2023-04-22T07:03:57.567Z,1001.47
2023-04-22T07:04:57.415Z,1001.47
2023-04-22T07:05:57.415Z,1001.51
2023-04-22T07:06:57.395Z,1001.50
2023-04-22T07:07:57.403Z,1001.53
2023-04-22T07:08:57.380Z,1001.53
2023-04-22T07:09:57.368Z,1001.48
2023-04-22T07:10:57.352Z,1001.46
2023-04-22T07:11:57.335Z,1001.50
2023-04-22T07:12:57.315Z,1001.47
2023-04-22T07:13:57.334Z,1001.52
2023-04-22T07:14:57.311Z,1001.49
2023-04-22T07:15:57.311Z,1001.48
2023-04-22T07:16:57.308Z,1001.45
2023-04-22T07:17:57.296Z,1001.47
2023-04-22T07:18:57.248Z,1001.50
2023-04-22T07:19:57.286Z,1001.51
2023-04-22T07:20:57.226Z,1001.50
2023-04-22T07:21:57.219Z,1001.48
2023-04-22T07:22:57.207Z,1001.48
2023-04-22T07:23:57.212Z,1001.44
2023-04-22T07:24:57.191Z,1001.48
2023-04-22T07:25:57.225Z,1001.43
2023-04-22T07:26:57.172Z,1001.41
2023-04-22T07:27:57.181Z,1001.37
2023-04-22T07:28:57.150Z,1001.37
2023-04-22T07:29:57.145Z,1001.41
2023-04-22T07:30:57.114Z,1001.45
2023-04-22T07:31:57.207Z,1001.46
2023-04-22T07:32:57.169Z,1001.38
2023-04-22T07:33:57.102Z,1001.41
2023-04-22T07:34:57.085Z,1001.38
2023-04-22T07:35:57.068Z,1001.37
2023-04-22T07:36:57.058Z,1001.37
2023-04-22T07:37:57.085Z,1001.39
2023-04-22T07:38:57.025Z,1001.39
2023-04-22T07:39:57.022Z,1001.36
2023-04-22T07:40:57.019Z,1001.32
2023-04-22T07:41:57.010Z,1001.34
2023-04-22T07:42:56.984Z,1001.32
2023-04-22T07:43:56.986Z,1001.35
2023-04-22T07:44:56.964Z,1001.33
2023-04-22T07:45:57.005Z,1001.32
2023-04-22T07:46:56.938Z,1001.33
2023-04-22T07:47:56.989Z,1001.32
2023-04-22T07:48:56.950Z,1001.31
2023-04-22T07:49:56.903Z,1001.33
2023-04-22T07:50:56.882Z,1001.30
2023-04-22T07:51:56.889Z,1001.34
2023-04-22T07:52:56.862Z,1001.28
2023-04-22T07:53:56.856Z,1001.31
2023-04-22T07:54:56.877Z,1001.18
2023-04-22T07:55:56.825Z,1001.20
2023-04-22T07:56:56.825Z,1001.17
2023-04-22T07:57:56.802Z,1001.25
2023-04-22T07:58:56.788Z,1001.24
2023-04-22T07:59:56.799Z,1001.24
2023-04-22T08:00:56.800Z,1001.18
2023-04-22T08:01:56.789Z,1001.20
2023-04-22T08:02:56.856Z,1001.25
2023-04-22T08:03:57.039Z,1001.25
2023-04-22T08:04:56.854Z,1001.27
2023-04-22T08:05:56.727Z,1001.30
2023-04-22T08:06:56.701Z,1001.28
2023-04-22T08:07:56.695Z,1001.22
2023-04-22T08:08:56.697Z,1001.19
2023-04-22T08:09:56.795Z,1001.10
2023-04-22T08:10:56.677Z,1001.12
2023-04-22T08:11:56.656Z,1001.09
2023-04-22T08:12:56.689Z,1001.09
2023-04-22T08:13:56.641Z,1001.05
2023-04-22T08:14:56.634Z,1001.07
2023-04-22T08:15:56.712Z,1001.05
2023-04-22T08:16:56.602Z,1001.06
2023-04-22T08:17:56.615Z,1001.04
2023-04-22T08:18:56.583Z,1001.04
2023-04-22T08:19:56.584Z,1001.01
2023-04-22T08:20:56.703Z,1001.09
2023-04-22T08:21:56.566Z,1001.07
2023-04-22T08:22:56.521Z,1001.09
2023-04-22T08:23:56.552Z,1001.01
2023-04-22T08:24:56.528Z,1000.96
2023-04-22T08:25:56.505Z,1000.97
2023-04-22T08:26:56.495Z,1000.89
2023-04-22T08:27:56.474Z,1000.93
2023-04-22T08:28:56.459Z,1000.96
2023-04-22T08:29:56.469Z,1000.88
2023-04-22T08:30:56.459Z,1000.96
2023-04-22T08:31:56.442Z,1000.92
2023-04-22T08:32:56.469Z,1000.95
2023-04-22T08:33:56.409Z,1000.89
2023-04-22T08:35:03.949Z,1000.89
2023-04-22T08:35:57.451Z,1000.89
2023-04-22T08:36:56.397Z,1000.82
2023-04-22T08:37:56.383Z,1000.83
2023-04-22T08:38:56.362Z,1000.83
2023-04-22T08:39:56.339Z,1000.86
2023-04-22T08:40:56.352Z,1000.82
2023-04-22T08:41:56.377Z,1000.80
2023-04-22T08:42:56.308Z,1000.83
2023-04-22T08:43:56.299Z,1000.85
2023-04-22T08:44:56.291Z,1000.85
2023-04-22T08:45:56.274Z,1000.87
2023-04-22T08:46:56.367Z,1000.84
2023-04-22T08:47:56.313Z,1000.85
2023-04-22T08:48:56.227Z,1000.84
2023-04-22T08:49:56.246Z,1000.86
2023-04-22T08:50:56.226Z,1000.78
2023-04-22T08:51:56.196Z,1000.78
2023-04-22T08:52:56.222Z,1000.74
2023-04-22T08:53:56.195Z,1000.75
2023-04-22T08:54:56.160Z,1000.77
2023-04-22T08:55:56.168Z,1000.80
2023-04-22T08:56:56.143Z,1000.81
2023-04-22T08:57:56.131Z,1000.79
2023-04-22T08:58:56.150Z,1000.76
2023-04-22T08:59:56.130Z,1000.71
2023-04-22T09:00:56.111Z,1000.76
2023-04-22T09:01:56.234Z,1000.70
2023-04-22T09:02:56.246Z,1000.74
2023-04-22T09:03:56.149Z,1000.73
2023-04-22T09:04:56.089Z,1000.71
2023-04-22T09:05:56.065Z,1000.68
2023-04-22T09:06:56.032Z,1000.62
2023-04-22T09:07:56.033Z,1000.61
2023-04-22T09:08:56.033Z,1000.59
2023-04-22T09:09:56.035Z,1000.61
2023-04-22T09:10:56.020Z,1000.63
2023-04-22T09:11:55.971Z,1000.66
2023-04-22T09:12:55.976Z,1000.59
2023-04-22T09:13:55.961Z,1000.57
2023-04-22T09:14:55.957Z,1000.54
2023-04-22T09:15:57.815Z,1000.49
2023-04-22T09:16:55.986Z,1000.49
2023-04-22T09:17:55.975Z,1000.46
2023-04-22T09:18:55.907Z,1000.55
2023-04-22T09:19:55.896Z,1000.50
2023-04-22T09:20:55.886Z,1000.50
2023-04-22T09:21:55.886Z,1000.53
2023-04-22T09:22:55.893Z,1000.53
2023-04-22T09:23:55.871Z,1000.46
2023-04-22T09:24:55.878Z,1000.56
2023-04-22T09:25:55.827Z,1000.51
2023-04-22T09:26:55.823Z,1000.53
2023-04-22T09:27:55.791Z,1000.51
2023-04-22T09:28:55.819Z,1000.56
2023-04-22T09:29:55.781Z,1000.55
2023-04-22T09:30:55.774Z,1000.54
2023-04-22T09:31:55.803Z,1000.51
2023-04-22T09:32:55.870Z,1000.49
2023-04-22T09:33:55.775Z,1000.50
2023-04-22T09:34:55.753Z,1000.60
2023-04-22T09:35:55.708Z,1000.56
2023-04-22T09:36:55.713Z,1000.57
2023-04-22T09:37:55.692Z,1000.63
2023-04-22T09:38:55.689Z,1000.56
2023-04-22T09:39:55.702Z,1000.56
2023-04-22T09:40:55.683Z,1000.59
2023-04-22T09:41:55.632Z,1000.62
2023-04-22T09:42:55.632Z,1000.53
2023-04-22T09:43:55.625Z,1000.52
2023-04-22T09:44:55.605Z,1000.55
2023-04-22T09:45:55.680Z,1000.49
2023-04-22T09:46:55.578Z,1000.49
2023-04-22T09:47:55.624Z,1000.55
2023-04-22T09:48:55.577Z,1000.53
2023-04-22T09:49:55.559Z,1000.57
2023-04-22T09:50:55.545Z,1000.52
2023-04-22T09:51:55.553Z,1000.58
2023-04-22T09:52:55.574Z,1000.59
2023-04-22T09:53:55.524Z,1000.57
2023-04-22T09:54:55.491Z,1000.45
2023-04-22T09:55:55.486Z,1000.54
2023-04-22T09:56:55.493Z,1000.55
2023-04-22T09:57:55.496Z,1000.53
2023-04-22T09:58:55.474Z,1000.47
2023-04-22T09:59:55.439Z,1000.53
2023-04-22T10:00:55.469Z,1000.48
2023-04-22T10:01:55.441Z,1000.55
2023-04-22T10:02:55.496Z,1000.51
2023-04-22T10:03:55.426Z,1000.54
2023-04-22T10:04:55.379Z,1000.63
2023-04-22T10:05:55.395Z,1000.60
2023-04-22T10:06:55.369Z,1000.60
2023-04-22T10:07:55.452Z,1000.64
2023-04-22T10:08:55.367Z,1000.56
2023-04-22T10:09:55.317Z,1000.59
2023-04-22T10:10:55.311Z,1000.54
2023-04-22T10:11:55.316Z,1000.54
2023-04-22T10:12:55.311Z,1000.53
2023-04-22T10:13:55.287Z,1000.56
2023-04-22T10:14:55.398Z,1000.55
2023-04-22T10:15:55.262Z,1000.62
2023-04-22T10:16:55.273Z,1000.77
2023-04-22T10:17:55.338Z,1000.68
2023-04-22T10:18:55.222Z,1000.61
2023-04-22T10:19:55.219Z,1000.88
2023-04-22T10:20:55.352Z,1000.63
2023-04-22T10:21:55.182Z,1000.67
2023-04-22T10:22:55.231Z,1000.68
2023-04-22T10:23:55.180Z,1000.60
2023-04-22T10:24:55.170Z,1000.62
2023-04-22T10:25:55.190Z,1000.58
2023-04-22T10:26:56.923Z,1000.59
2023-04-22T10:27:55.127Z,1000.57
2023-04-22T10:28:55.138Z,1000.64
2023-04-22T10:29:55.092Z,1000.61
2023-04-22T10:30:55.138Z,1000.52
2023-04-22T10:31:55.072Z,1000.54
2023-04-22T10:32:55.117Z,1000.59
2023-04-22T10:33:55.047Z,1000.59
2023-04-22T10:34:55.077Z,1000.54
2023-04-22T10:35:55.027Z,1000.63
2023-04-22T10:36:55.031Z,1000.57
2023-04-22T10:37:55.019Z,1000.58
2023-04-22T10:38:55.050Z,1000.57
2023-04-22T10:39:54.982Z,1000.54
2023-04-22T10:40:54.989Z,1000.55
2023-04-22T10:41:54.960Z,1000.51
2023-04-22T10:42:54.953Z,1000.62
2023-04-22T10:43:54.971Z,1000.59
2023-04-22T10:44:54.962Z,1000.56
2023-04-22T10:45:54.920Z,1000.67
2023-04-22T10:46:54.925Z,1000.61
2023-04-22T10:47:54.945Z,1000.51
2023-04-22T10:48:54.887Z,1000.74
2023-04-22T10:49:54.926Z,1000.54
2023-04-22T10:50:54.875Z,1000.85
2023-04-22T10:51:54.858Z,1000.61
2023-04-22T10:52:54.842Z,1000.63
2023-04-22T10:53:54.824Z,1000.64
2023-04-22T10:54:54.842Z,1000.64
2023-04-22T10:55:54.838Z,1000.62
2023-04-22T10:56:58.121Z,1000.68
2023-04-22T10:57:54.806Z,1000.81
2023-04-22T10:58:54.775Z,1000.74
2023-04-22T10:59:56.092Z,1000.86
2023-04-22T11:00:54.777Z,1000.79
2023-04-22T11:01:54.831Z,1000.86
2023-04-22T11:02:54.815Z,1000.53
2023-04-22T11:03:54.875Z,1000.72
2023-04-22T11:04:54.708Z,1000.75
2023-04-22T11:05:54.694Z,1000.63
2023-04-22T11:06:54.701Z,1000.74
2023-04-22T11:07:54.703Z,1000.65
2023-04-22T11:08:54.664Z,1000.63
2023-04-22T11:09:54.673Z,1000.69
2023-04-22T11:10:54.650Z,1000.73
2023-04-22T11:11:54.640Z,1000.75
2023-04-22T11:12:54.623Z,1000.81
2023-04-22T11:13:54.640Z,1000.75
2023-04-22T11:14:54.608Z,1000.78
2023-04-22T11:15:54.641Z,1000.95
2023-04-22T11:16:54.616Z,1001.00
2023-04-22T11:17:54.592Z,1000.91
2023-04-22T11:18:54.587Z,1000.88
2023-04-22T11:19:54.544Z,1000.85
2023-04-22T11:20:54.535Z,1000.82
2023-04-22T11:21:54.541Z,1000.78
2023-04-22T11:22:54.530Z,1000.82
2023-04-22T11:23:54.505Z,1000.77
2023-04-22T11:24:54.526Z,1000.85
2023-04-22T11:25:54.484Z,1000.85
2023-04-22T11:26:54.560Z,1000.88
2023-04-22T11:27:54.466Z,1000.88
2023-04-22T11:28:55.150Z,1000.88
2023-04-22T11:29:54.439Z,1000.81
2023-04-22T11:30:54.439Z,1000.82
2023-04-22T11:31:54.482Z,1000.81
2023-04-22T11:32:54.481Z,1000.81
2023-04-22T11:33:54.381Z,1000.79
2023-04-22T11:34:54.399Z,1000.78
2023-04-22T11:35:54.357Z,1000.88
2023-04-22T11:36:54.429Z,1000.89
2023-04-22T11:37:54.358Z,1000.75
2023-04-22T11:38:54.328Z,1000.79
2023-04-22T11:40:13.777Z,1000.80
2023-04-22T11:40:55.300Z,1000.76
2023-04-22T11:41:54.292Z,1000.78
2023-04-22T11:42:54.328Z,1000.75
2023-04-22T11:43:54.265Z,1000.80
2023-04-22T11:44:54.265Z,1000.73
2023-04-22T11:45:54.311Z,1000.87
2023-04-22T11:46:54.267Z,1000.73
2023-04-22T11:47:54.265Z,1000.76
2023-04-22T11:48:54.261Z,1000.86
2023-04-22T11:49:54.199Z,1000.82
2023-04-22T11:50:54.197Z,1000.93
2023-04-22T11:51:54.208Z,1000.73
2023-04-22T11:52:54.180Z,1000.75
2023-04-22T11:53:54.205Z,1000.77
2023-04-22T11:54:54.173Z,1000.76
2023-04-22T11:55:54.133Z,1000.70
2023-04-22T11:56:54.156Z,1000.67
2023-04-22T11:57:54.118Z,1000.83
2023-04-22T11:58:54.119Z,1000.76
2023-04-22T11:59:54.115Z,1000.71
2023-04-22T12:00:54.107Z,1000.73
2023-04-22T12:01:54.095Z,1000.83
2023-04-22T12:02:54.208Z,1000.82
2023-04-22T12:03:54.142Z,1000.77
2023-04-22T12:04:54.099Z,1000.83